sensor_id;sensor_type;location;lat;lon;timestamp;pressure;altitude;pressure_sealevel;temperature;humidity
21129;BME280;10722;51.910;8.352;2022-07-23T00:02:36;101116.19;;;16.83;100.00
21129;BME280;10722;51.910;8.352;2022-07-23T00:05:21;101111.81;;;16.66;100.00
21129;BME280;10722;51.910;8.352;2022-07-23T00:08:07;101093.56;;;16.63;100.00
21129;BME280;10722;51.910;8.352;2022-07-23T00:10:58;101094.44;;;16.54;100.00
21129;BME280;10722;51.910;8.352;2022-07-23T00:13:44;101098.78;;;16.58;100.00
21129;BME280;10722;51.910;8.352;2022-07-23T00:16:29;101103.13;;;16.63;100.00
21129;BME280;10722;51.910;8.352;2022-07-23T00:19:15;101115.31;;;16.67;100.00
21129;BME280;10722;51.910;8.352;2022-07-23T00:22:00;101126.63;;;16.78;100.00
21129;BME280;10722;51.910;8.352;2022-07-23T00:24:46;101117.94;;;16.79;100.00
21129;BME280;10722;51.910;8.352;2022-07-23T00:27:51;101118.81;;;16.78;100.00
21129;BME280;10722;51.910;8.352;2022-07-23T00:30:36;101124.00;;;16.75;100.00
21129;BME280;10722;51.910;8.352;2022-07-23T00:33:22;101145.78;;;16.74;100.00
21129;BME280;10722;51.910;8.352;2022-07-23T00:36:07;101141.44;;;16.74;100.00
21129;BME280;10722;51.910;8.352;2022-07-23T00:38:53;101159.75;;;16.82;100.00
21129;BME280;10722;51.910;8.352;2022-07-23T00:41:38;101158.88;;;16.83;100.00
21129;BME280;10722;51.910;8.352;2022-07-23T00:44:25;101169.31;;;16.80;100.00
21129;BME280;10722;51.910;8.352;2022-07-23T00:47:11;101159.75;;;16.70;100.00
21129;BME280;10722;51.910;8.352;2022-07-23T00:49:56;101166.69;;;16.54;100.00
21129;BME280;10722;51.910;8.352;2022-07-23T00:52:42;101171.94;;;16.45;100.00
21129;BME280;10722;51.910;8.352;2022-07-23T00:55:27;101163.19;;;16.35;100.00
21129;BME280;10722;51.910;8.352;2022-07-23T00:58:12;101163.19;;;16.09;100.00
21129;BME280;10722;51.910;8.352;2022-07-23T01:00:58;101151.88;;;16.27;100.00
21129;BME280;10722;51.910;8.352;2022-07-23T01:03:44;101159.72;;;16.47;100.00
21129;BME280;10722;51.910;8.352;2022-07-23T01:06:34;101153.63;;;16.55;100.00
21129;BME280;10722;51.910;8.352;2022-07-23T01:09:20;101147.53;;;16.61;100.00
21129;BME280;10722;51.910;8.352;2022-07-23T01:12:06;101154.50;;;16.71;100.00
21129;BME280;10722;51.910;8.352;2022-07-23T01:14:56;101149.25;;;16.74;100.00
21129;BME280;10722;51.910;8.352;2022-07-23T01:17:42;101139.69;;;16.75;100.00
21129;BME280;10722;51.910;8.352;2022-07-23T01:20:27;101131.00;;;16.77;100.00
21129;BME280;10722;51.910;8.352;2022-07-23T01:23:13;101122.28;;;16.65;100.00
21129;BME280;10722;51.910;8.352;2022-07-23T01:25:58;101124.91;;;16.65;100.00
21129;BME280;10722;51.910;8.352;2022-07-23T01:28:43;101117.03;;;16.69;100.00
21129;BME280;10722;51.910;8.352;2022-07-23T01:31:29;101118.78;;;16.69;100.00
21129;BME280;10722;51.910;8.352;2022-07-23T01:34:15;101104.88;;;16.54;100.00
21129;BME280;10722;51.910;8.352;2022-07-23T01:37:01;101102.25;;;16.47;100.00
21129;BME280;10722;51.910;8.352;2022-07-23T01:39:46;101102.28;;;16.39;100.00
21129;BME280;10722;51.910;8.352;2022-07-23T01:42:32;101099.66;;;16.44;100.00
21129;BME280;10722;51.910;8.352;2022-07-23T01:45:19;101089.22;;;16.48;100.00
21129;BME280;10722;51.910;8.352;2022-07-23T01:48:05;101085.72;;;16.39;100.00
21129;BME280;10722;51.910;8.352;2022-07-23T01:50:55;101095.31;;;16.44;100.00
21129;BME280;10722;51.910;8.352;2022-07-23T01:53:40;101090.09;;;16.40;100.00
21129;BME280;10722;51.910;8.352;2022-07-23T01:56:25;101092.72;;;16.40;100.00
21129;BME280;10722;51.910;8.352;2022-07-23T01:59:11;101095.31;;;16.52;100.00
21129;BME280;10722;51.910;8.352;2022-07-23T02:01:56;101093.56;;;16.54;100.00
21129;BME280;10722;51.910;8.352;2022-07-23T02:04:41;101080.53;;;16.48;100.00
21129;BME280;10722;51.910;8.352;2022-07-23T02:07:26;101088.34;;;16.48;100.00
21129;BME280;10722;51.910;8.352;2022-07-23T02:10:17;101083.16;;;16.28;100.00
21129;BME280;10722;51.910;8.352;2022-07-23T02:13:02;101080.53;;;16.00;100.00
21129;BME280;10722;51.910;8.352;2022-07-23T02:15:47;101083.97;;;15.93;100.00
21129;BME280;10722;51.910;8.352;2022-07-23T02:18:32;101092.69;;;15.83;100.00
21129;BME280;10722;51.910;8.352;2022-07-23T02:21:18;101090.91;;;15.69;100.00
21129;BME280;10722;51.910;8.352;2022-07-23T02:24:04;101097.03;;;15.99;100.00
21129;BME280;10722;51.910;8.352;2022-07-23T02:26:49;101092.69;;;16.01;100.00
21129;BME280;10722;51.910;8.352;2022-07-23T02:29:34;101078.78;;;16.13;100.00
21129;BME280;10722;51.910;8.352;2022-07-23T02:32:20;101083.13;;;16.12;100.00
21129;BME280;10722;51.910;8.352;2022-07-23T02:35:06;101075.31;;;16.17;100.00
21129;BME280;10722;51.910;8.352;2022-07-23T02:37:51;101081.41;;;16.25;100.00
21129;BME280;10722;51.910;8.352;2022-07-23T02:40:36;101090.97;;;16.28;100.00
21129;BME280;10722;51.910;8.352;2022-07-23T02:43:22;101087.50;;;16.26;100.00
21129;BME280;10722;51.910;8.352;2022-07-23T02:46:08;101084.00;;;16.27;100.00
21129;BME280;10722;51.910;8.352;2022-07-23T02:48:53;101088.34;;;16.32;100.00
21129;BME280;10722;51.910;8.352;2022-07-23T02:51:38;101087.50;;;16.40;100.00
21129;BME280;10722;51.910;8.352;2022-07-23T02:54:24;101088.34;;;16.26;100.00
21129;BME280;10722;51.910;8.352;2022-07-23T02:57:09;101084.00;;;16.24;100.00
21129;BME280;10722;51.910;8.352;2022-07-23T02:59:54;101084.00;;;16.21;100.00
21129;BME280;10722;51.910;8.352;2022-07-23T03:02:40;101087.50;;;16.13;100.00
21129;BME280;10722;51.910;8.352;2022-07-23T03:05:25;101090.09;;;16.09;100.00
21129;BME280;10722;51.910;8.352;2022-07-23T03:08:10;101085.75;;;16.11;100.00
21129;BME280;10722;51.910;8.352;2022-07-23T03:10:56;101083.16;;;16.11;100.00
21129;BME280;10722;51.910;8.352;2022-07-23T03:13:41;101086.63;;;16.05;100.00
21129;BME280;10722;51.910;8.352;2022-07-23T03:16:27;101084.00;;;16.10;100.00
21129;BME280;10722;51.910;8.352;2022-07-23T03:19:12;101080.53;;;16.06;100.00
21129;BME280;10722;51.910;8.352;2022-07-23T03:21:58;101084.00;;;15.88;100.00
21129;BME280;10722;51.910;8.352;2022-07-23T03:24:44;101090.06;;;15.81;100.00
21129;BME280;10722;51.910;8.352;2022-07-23T03:27:30;101085.72;;;15.88;100.00
21129;BME280;10722;51.910;8.352;2022-07-23T03:30:15;101089.19;;;15.93;100.00
21129;BME280;10722;51.910;8.352;2022-07-23T03:33:00;101080.50;;;15.86;100.00
21129;BME280;10722;51.910;8.352;2022-07-23T03:35:46;101086.59;;;15.95;100.00
21129;BME280;10722;51.910;8.352;2022-07-23T03:38:32;101083.13;;;15.89;100.00
21129;BME280;10722;51.910;8.352;2022-07-23T03:41:18;101083.97;;;15.87;100.00
21129;BME280;10722;51.910;8.352;2022-07-23T03:44:03;101080.47;;;15.79;100.00
21129;BME280;10722;51.910;8.352;2022-07-23T03:46:48;101086.56;;;15.76;100.00
21129;BME280;10722;51.910;8.352;2022-07-23T03:49:33;101082.19;;;15.66;100.00
21129;BME280;10722;51.910;8.352;2022-07-23T03:52:19;101077.81;;;15.63;100.00
21129;BME280;10722;51.910;8.352;2022-07-23T03:55:05;101084.75;;;15.61;100.00
21129;BME280;10722;51.910;8.352;2022-07-23T03:57:50;101080.41;;;15.56;100.00
21129;BME280;10722;51.910;8.352;2022-07-23T04:00:36;101080.38;;;15.48;100.00
21129;BME280;10722;51.910;8.352;2022-07-23T04:03:21;101088.13;;;15.23;100.00
21129;BME280;10722;51.910;8.352;2022-07-23T04:06:06;101088.06;;;15.14;100.00
21129;BME280;10722;51.910;8.352;2022-07-23T04:08:51;101091.50;;;15.06;100.00
21129;BME280;10722;51.910;8.352;2022-07-23T04:11:36;101085.41;;;14.99;100.00
21129;BME280;10722;51.910;8.352;2022-07-23T04:14:22;101089.75;;;14.98;100.00
21129;BME280;10722;51.910;8.352;2022-07-23T04:17:07;101088.91;;;15.01;100.00
21129;BME280;10722;51.910;8.352;2022-07-23T04:19:52;101099.31;;;15.06;100.00
21129;BME280;10722;51.910;8.352;2022-07-23T04:22:38;101097.63;;;15.09;100.00
21129;BME280;10722;51.910;8.352;2022-07-23T04:25:23;101096.72;;;15.06;100.00
21129;BME280;10722;51.910;8.352;2022-07-23T04:28:09;101101.91;;;14.99;100.00
21129;BME280;10722;51.910;8.352;2022-07-23T04:30:58;101095.88;;;15.11;100.00
21129;BME280;10722;51.910;8.352;2022-07-23T04:33:44;101099.38;;;15.16;100.00
21129;BME280;10722;51.910;8.352;2022-07-23T04:36:29;101093.28;;;15.14;100.00
21129;BME280;10722;51.910;8.352;2022-07-23T04:39:14;101092.41;;;15.14;100.00
21129;BME280;10722;51.910;8.352;2022-07-23T04:41:59;101083.69;;;15.04;100.00
21129;BME280;10722;51.910;8.352;2022-07-23T04:44:44;101094.88;;;14.89;100.00
21129;BME280;10722;51.910;8.352;2022-07-23T04:47:30;101100.09;;;14.88;100.00
21129;BME280;10722;51.910;8.352;2022-07-23T04:50:16;101098.41;;;14.97;100.00
21129;BME280;10722;51.910;8.352;2022-07-23T04:53:01;101115.88;;;15.17;100.00
21129;BME280;10722;51.910;8.352;2022-07-23T04:55:47;101111.53;;;15.17;100.00
21129;BME280;10722;51.910;8.352;2022-07-23T04:58:32;101113.34;;;15.31;100.00
21129;BME280;10722;51.910;8.352;2022-07-23T05:01:17;101118.59;;;15.40;100.00
21129;BME280;10722;51.910;8.352;2022-07-23T05:04:03;101122.13;;;15.54;100.00
21129;BME280;10722;51.910;8.352;2022-07-23T05:06:49;101123.91;;;15.64;100.00
21129;BME280;10722;51.910;8.352;2022-07-23T05:09:34;101122.22;;;15.76;100.00
21129;BME280;10722;51.910;8.352;2022-07-23T05:12:19;101116.16;;;15.84;100.00
21129;BME280;10722;51.910;8.352;2022-07-23T05:15:05;101118.78;;;15.86;100.00
21129;BME280;10722;51.910;8.352;2022-07-23T05:17:50;101108.31;;;15.90;100.00
21129;BME280;10722;51.910;8.352;2022-07-23T05:20:35;101109.22;;;15.97;100.00
21129;BME280;10722;51.910;8.352;2022-07-23T05:23:20;101117.03;;;15.99;100.00
21129;BME280;10722;51.910;8.352;2022-07-23T05:26:05;101107.50;;;16.05;100.00
21129;BME280;10722;51.910;8.352;2022-07-23T05:28:51;101097.03;;;16.13;100.00
21129;BME280;10722;51.910;8.352;2022-07-23T05:31:36;101097.94;;;16.20;100.00
21129;BME280;10722;51.910;8.352;2022-07-23T05:34:22;101104.88;;;16.24;100.00
21129;BME280;10722;51.910;8.352;2022-07-23T05:37:07;101110.09;;;16.24;100.00
21129;BME280;10722;51.910;8.352;2022-07-23T05:39:52;101117.94;;;16.30;100.00
21129;BME280;10722;51.910;8.352;2022-07-23T05:42:39;101113.59;;;16.38;100.00
21129;BME280;10722;51.910;8.352;2022-07-23T05:45:24;101113.59;;;16.50;100.00
21129;BME280;10722;51.910;8.352;2022-07-23T05:48:09;101117.06;;;16.57;100.00
21129;BME280;10722;51.910;8.352;2022-07-23T05:50:54;101110.09;;;16.61;100.00
21129;BME280;10722;51.910;8.352;2022-07-23T05:53:40;101120.53;;;16.47;100.00
21129;BME280;10722;51.910;8.352;2022-07-23T05:56:25;101116.19;;;16.61;100.00
21129;BME280;10722;51.910;8.352;2022-07-23T05:59:10;101129.25;;;16.66;100.00
21129;BME280;10722;51.910;8.352;2022-07-23T06:01:56;101122.28;;;16.74;100.00
21129;BME280;10722;51.910;8.352;2022-07-23T06:04:41;101131.00;;;16.73;100.00
21129;BME280;10722;51.910;8.352;2022-07-23T06:07:27;101127.50;;;16.83;100.00
21129;BME280;10722;51.910;8.352;2022-07-23T06:10:12;101137.94;;;16.94;100.00
21129;BME280;10722;51.910;8.352;2022-07-23T06:12:57;101127.47;;;17.00;100.00
21129;BME280;10722;51.910;8.352;2022-07-23T06:15:47;101131.81;;;17.02;100.00
21129;BME280;10722;51.910;8.352;2022-07-23T06:18:32;101133.56;;;17.07;100.00
21129;BME280;10722;51.910;8.352;2022-07-23T06:21:17;101137.94;;;17.05;100.00
21129;BME280;10722;51.910;8.352;2022-07-23T06:24:23;101130.06;;;17.08;100.00
21129;BME280;10722;51.910;8.352;2022-07-23T06:27:08;101126.56;;;17.18;100.00
21129;BME280;10722;51.910;8.352;2022-07-23T06:29:53;101136.13;;;17.22;100.00
21129;BME280;10722;51.910;8.352;2022-07-23T06:32:39;101134.34;;;17.36;100.00
21129;BME280;10722;51.910;8.352;2022-07-23T06:35:24;101134.31;;;17.41;100.00
21129;BME280;10722;51.910;8.352;2022-07-23T06:38:09;101134.34;;;17.38;100.00
21129;BME280;10722;51.910;8.352;2022-07-23T06:40:55;101139.53;;;17.47;100.00
21129;BME280;10722;51.910;8.352;2022-07-23T06:43:40;101124.72;;;17.40;100.00
21129;BME280;10722;51.910;8.352;2022-07-23T06:46:25;101136.91;;;17.48;100.00
21129;BME280;10722;51.910;8.352;2022-07-23T06:49:11;101153.41;;;17.57;100.00
21129;BME280;10722;51.910;8.352;2022-07-23T06:51:57;101148.16;;;17.69;100.00
21129;BME280;10722;51.910;8.352;2022-07-23T06:54:42;101146.41;;;17.71;100.00
21129;BME280;10722;51.910;8.352;2022-07-23T06:57:28;101143.75;;;17.77;100.00
21129;BME280;10722;51.910;8.352;2022-07-23T07:00:16;101149.84;;;17.85;100.00
21129;BME280;10722;51.910;8.352;2022-07-23T07:03:02;101148.94;;;17.89;100.00
21129;BME280;10722;51.910;8.352;2022-07-23T07:05:47;101142.84;;;17.87;100.00
21129;BME280;10722;51.910;8.352;2022-07-23T07:08:33;101148.88;;;17.99;100.00
21129;BME280;10722;51.910;8.352;2022-07-23T07:11:18;101144.41;;;18.14;99.03
21129;BME280;10722;51.910;8.352;2022-07-23T07:14:03;101128.53;;;18.34;96.37
21129;BME280;10722;51.910;8.352;2022-07-23T07:16:48;101144.03;;;18.62;96.66
21129;BME280;10722;51.910;8.352;2022-07-23T07:19:33;101131.53;;;18.92;95.56
21129;BME280;10722;51.910;8.352;2022-07-23T07:22:19;101122.22;;;19.42;92.67
21129;BME280;10722;51.910;8.352;2022-07-23T07:25:05;101102.41;;;19.86;87.93
21129;BME280;10722;51.910;8.352;2022-07-23T07:27:51;101109.72;;;20.21;86.32
21129;BME280;10722;51.910;8.352;2022-07-23T07:30:36;101107.56;;;20.48;84.53
21129;BME280;10722;51.910;8.352;2022-07-23T07:33:21;101126.94;;;20.41;85.90
21129;BME280;10722;51.910;8.352;2022-07-23T07:36:06;101112.50;;;20.13;84.80
21129;BME280;10722;51.910;8.352;2022-07-23T07:38:52;101105.22;;;20.31;83.78
21129;BME280;10722;51.910;8.352;2022-07-23T07:41:37;101120.84;;;20.38;83.30
21129;BME280;10722;51.910;8.352;2022-07-23T07:44:23;101115.13;;;20.66;82.51
21129;BME280;10722;51.910;8.352;2022-07-23T07:47:08;101091.22;;;20.80;79.58
21129;BME280;10722;51.910;8.352;2022-07-23T07:49:53;101104.09;;;20.95;80.02
21129;BME280;10722;51.910;8.352;2022-07-23T07:52:39;101127.16;;;21.24;80.16
21129;BME280;10722;51.910;8.352;2022-07-23T07:55:24;101071.84;;;21.29;76.01
21129;BME280;10722;51.910;8.352;2022-07-23T07:58:09;101106.31;;;21.15;76.89
21129;BME280;10722;51.910;8.352;2022-07-23T08:00:55;101114.41;;;21.04;76.97
21129;BME280;10722;51.910;8.352;2022-07-23T08:03:40;101074.53;;;21.24;74.85
21129;BME280;10722;51.910;8.352;2022-07-23T08:06:26;101085.88;;;21.28;74.52
21129;BME280;10722;51.910;8.352;2022-07-23T08:09:11;101121.69;;;21.35;75.42
21129;BME280;10722;51.910;8.352;2022-07-23T08:11:57;101136.38;;;21.03;76.78
21129;BME280;10722;51.910;8.352;2022-07-23T08:14:42;101137.13;;;21.09;77.38
21129;BME280;10722;51.910;8.352;2022-07-23T08:17:27;101151.91;;;21.16;77.84
21129;BME280;10722;51.910;8.352;2022-07-23T08:20:15;101168.25;;;20.85;79.52
21129;BME280;10722;51.910;8.352;2022-07-23T08:23:06;101147.53;;;20.68;78.02
21129;BME280;10722;51.910;8.352;2022-07-23T08:25:52;101147.38;;;21.24;77.41
21129;BME280;10722;51.910;8.352;2022-07-23T08:28:37;101143.22;;;21.57;76.30
21129;BME280;10722;51.910;8.352;2022-07-23T08:31:22;101150.16;;;21.99;75.57
21129;BME280;10722;51.910;8.352;2022-07-23T08:34:08;101087.56;;;22.46;71.23
21129;BME280;10722;51.910;8.352;2022-07-23T08:36:53;101043.75;;;23.05;67.71
21129;BME280;10722;51.910;8.352;2022-07-23T08:39:38;101077.47;;;22.96;67.58
21129;BME280;10722;51.910;8.352;2022-07-23T08:42:24;101079.19;;;22.64;67.61
21129;BME280;10722;51.910;8.352;2022-07-23T08:45:11;101111.97;;;22.54;69.54
21129;BME280;10722;51.910;8.352;2022-07-23T08:47:57;101086.03;;;22.37;67.73
21129;BME280;10722;51.910;8.352;2022-07-23T08:50:45;101101.59;;;22.48;68.09
21129;BME280;10722;51.910;8.352;2022-07-23T08:53:32;101055.78;;;23.14;64.68
21129;BME280;10722;51.910;8.352;2022-07-23T08:56:18;101118.97;;;23.50;65.78
21129;BME280;10722;51.910;8.352;2022-07-23T08:59:04;101078.31;;;23.85;63.45
21129;BME280;10722;51.910;8.352;2022-07-23T09:01:49;101061.97;;;24.27;61.46
21129;BME280;10722;51.910;8.352;2022-07-23T09:04:34;101063.66;;;24.02;61.66
21129;BME280;10722;51.910;8.352;2022-07-23T09:07:20;101041.22;;;23.60;60.93
21129;BME280;10722;51.910;8.352;2022-07-23T09:10:08;101076.69;;;23.52;61.61
21129;BME280;10722;51.910;8.352;2022-07-23T09:12:53;101082.28;;;23.11;62.69
21129;BME280;10722;51.910;8.352;2022-07-23T09:15:48;101094.41;;;23.18;62.61
21129;BME280;10722;51.910;8.352;2022-07-23T09:21:34;101028.03;;;23.31;59.24
21129;BME280;10722;51.910;8.352;2022-07-23T09:24:20;101044.22;;;23.78;58.43
21129;BME280;10722;51.910;8.352;2022-07-23T09:27:05;101043.19;;;23.82;58.22
21129;BME280;10722;51.910;8.352;2022-07-23T09:29:56;101027.91;;;23.91;56.99
21129;BME280;10722;51.910;8.352;2022-07-23T09:32:42;101055.31;;;23.59;57.80
21129;BME280;10722;51.910;8.352;2022-07-23T09:35:55;101054.72;;;23.51;57.83
21129;BME280;10722;51.910;8.352;2022-07-23T09:38:48;101073.66;;;23.93;57.79
21129;BME280;10722;51.910;8.352;2022-07-23T09:41:39;101104.66;;;25.17;57.41
21129;BME280;10722;51.910;8.352;2022-07-23T09:44:24;101048.25;;;24.91;54.46
21129;BME280;10722;51.910;8.352;2022-07-23T09:47:13;101123.16;;;24.68;57.56
21129;BME280;10722;51.910;8.352;2022-07-23T09:50:04;101035.88;;;25.39;53.23
21129;BME280;10722;51.910;8.352;2022-07-23T09:52:49;101063.41;;;26.23;52.63
21129;BME280;10722;51.910;8.352;2022-07-23T09:55:36;101041.31;;;25.80;52.22
21129;BME280;10722;51.910;8.352;2022-07-23T09:58:22;101079.50;;;26.18;52.87
21129;BME280;10722;51.910;8.352;2022-07-23T10:01:07;101080.03;;;26.06;53.65
21129;BME280;10722;51.910;8.352;2022-07-23T10:03:53;101102.41;;;26.41;53.42
21129;BME280;10722;51.910;8.352;2022-07-23T10:06:39;101117.63;;;26.15;54.15
21129;BME280;10722;51.910;8.352;2022-07-23T10:09:40;101080.44;;;26.17;52.40
21129;BME280;10722;51.910;8.352;2022-07-23T10:12:26;101069.53;;;25.81;52.69
21129;BME280;10722;51.910;8.352;2022-07-23T10:15:11;101096.56;;;25.45;53.78
21129;BME280;10722;51.910;8.352;2022-07-23T10:17:56;101114.16;;;25.69;53.62
21129;BME280;10722;51.910;8.352;2022-07-23T10:20:42;101119.84;;;26.26;52.99
21129;BME280;10722;51.910;8.352;2022-07-23T10:23:34;101034.47;;;27.55;47.71
21129;BME280;10722;51.910;8.352;2022-07-23T10:26:39;101050.22;;;28.31;46.24
21129;BME280;10722;51.910;8.352;2022-07-23T10:36:21;101067.34;;;29.42;44.60
21129;BME280;10722;51.910;8.352;2022-07-23T10:39:22;101065.22;;;28.32;45.69
21129;BME280;10722;51.910;8.352;2022-07-23T10:42:13;101131.25;;;28.06;48.08
21129;BME280;10722;51.910;8.352;2022-07-23T10:44:59;101117.88;;;28.08;47.83
21129;BME280;10722;51.910;8.352;2022-07-23T10:47:44;101101.34;;;28.72;46.22
21129;BME280;10722;51.910;8.352;2022-07-23T10:50:31;101080.75;;;29.25;44.79
21129;BME280;10722;51.910;8.352;2022-07-23T10:53:17;101084.22;;;27.89;46.61
21129;BME280;10722;51.910;8.352;2022-07-23T10:56:02;101081.78;;;27.28;47.23
21129;BME280;10722;51.910;8.352;2022-07-23T10:58:49;101115.56;;;27.26;48.65
21129;BME280;10722;51.910;8.352;2022-07-23T11:01:40;101103.69;;;26.94;48.80
21129;BME280;10722;51.910;8.352;2022-07-23T11:04:48;101108.56;;;27.61;48.17
21129;BME280;10722;51.910;8.352;2022-07-23T11:07:35;101075.81;;;28.16;45.78
21129;BME280;10722;51.910;8.352;2022-07-23T11:10:36;101123.84;;;28.13;47.65
21129;BME280;10722;51.910;8.352;2022-07-23T11:16:18;101085.28;;;29.72;44.00
21129;BME280;10722;51.910;8.352;2022-07-23T11:19:05;101044.22;;;27.74;44.34
21129;BME280;10722;51.910;8.352;2022-07-23T11:21:51;101063.84;;;29.26;42.86
21129;BME280;10722;51.910;8.352;2022-07-23T11:24:50;101073.09;;;29.98;41.61
21129;BME280;10722;51.910;8.352;2022-07-23T11:27:43;101054.81;;;30.67;41.02
21129;BME280;10722;51.910;8.352;2022-07-23T11:33:35;101057.50;;;30.81;39.67
21129;BME280;10722;51.910;8.352;2022-07-23T11:36:20;101060.75;;;31.00;39.93
21129;BME280;10722;51.910;8.352;2022-07-23T11:39:05;101029.06;;;29.91;40.26
21129;BME280;10722;51.910;8.352;2022-07-23T11:41:52;101058.41;;;29.12;42.21
21129;BME280;10722;51.910;8.352;2022-07-23T11:44:38;101071.16;;;27.47;45.17
21129;BME280;10722;51.910;8.352;2022-07-23T11:47:25;101076.94;;;27.93;44.65
21129;BME280;10722;51.910;8.352;2022-07-23T11:50:11;101089.03;;;27.24;46.29
21129;BME280;10722;51.910;8.352;2022-07-23T11:52:56;101064.97;;;27.65;44.03
21129;BME280;10722;51.910;8.352;2022-07-23T11:55:41;101132.84;;;28.80;46.48
21129;BME280;10722;51.910;8.352;2022-07-23T11:58:26;101104.38;;;29.80;44.78
21129;BME280;10722;51.910;8.352;2022-07-23T12:01:11;101034.53;;;30.34;40.45
21129;BME280;10722;51.910;8.352;2022-07-23T12:04:03;101028.72;;;30.27;39.58
21129;BME280;10722;51.910;8.352;2022-07-23T12:07:55;101037.84;;;31.52;37.73
21129;BME280;10722;51.910;8.352;2022-07-23T12:10:46;101056.63;;;31.38;38.84
21129;BME280;10722;51.910;8.352;2022-07-23T12:13:32;101038.50;;;32.23;36.92
21129;BME280;10722;51.910;8.352;2022-07-23T12:16:17;101026.09;;;30.99;38.08
21129;BME280;10722;51.910;8.352;2022-07-23T12:19:03;101049.31;;;29.16;42.19
21129;BME280;10722;51.910;8.352;2022-07-23T12:21:48;101037.16;;;30.20;40.35
21129;BME280;10722;51.910;8.352;2022-07-23T12:25:00;101031.00;;;31.34;37.87
21129;BME280;10722;51.910;8.352;2022-07-23T12:27:46;101028.41;;;30.91;38.00
21129;BME280;10722;51.910;8.352;2022-07-23T12:30:46;101171.94;;;31.60;47.85
21129;BME280;10722;51.910;8.352;2022-07-23T12:33:34;101070.72;;;32.21;41.55
21129;BME280;10722;51.910;8.352;2022-07-23T12:36:36;101062.47;;;31.01;42.02
21129;BME280;10722;51.910;8.352;2022-07-23T12:39:31;101026.44;;;32.30;37.75
21129;BME280;10722;51.910;8.352;2022-07-23T12:42:17;101028.38;;;32.79;37.27
21129;BME280;10722;51.910;8.352;2022-07-23T12:45:05;101018.03;;;33.48;35.92
21129;BME280;10722;51.910;8.352;2022-07-23T12:51:15;101006.06;;;33.28;34.88
21129;BME280;10722;51.910;8.352;2022-07-23T12:54:26;101034.34;;;33.08;36.55
21129;BME280;10722;51.910;8.352;2022-07-23T12:57:12;101007.97;;;33.15;35.49
21129;BME280;10722;51.910;8.352;2022-07-23T13:00:08;101039.38;;;32.36;38.37
21129;BME280;10722;51.910;8.352;2022-07-23T13:02:53;101026.88;;;33.00;35.62
21129;BME280;10722;51.910;8.352;2022-07-23T13:05:44;101031.81;;;32.55;36.58
21129;BME280;10722;51.910;8.352;2022-07-23T13:08:31;101012.22;;;34.13;33.23
21129;BME280;10722;51.910;8.352;2022-07-23T13:11:18;101012.44;;;34.57;33.24
21129;BME280;10722;51.910;8.352;2022-07-23T13:14:04;101027.06;;;35.32;32.83
21129;BME280;10722;51.910;8.352;2022-07-23T13:16:54;101029.28;;;34.12;35.24
21129;BME280;10722;51.910;8.352;2022-07-23T13:19:41;100997.13;;;33.40;34.06
21129;BME280;10722;51.910;8.352;2022-07-23T13:22:26;101023.44;;;33.35;35.31
21129;BME280;10722;51.910;8.352;2022-07-23T13:25:12;101025.75;;;33.77;34.79
21129;BME280;10722;51.910;8.352;2022-07-23T13:27:57;101012.47;;;33.38;34.21
21129;BME280;10722;51.910;8.352;2022-07-23T13:30:43;101012.53;;;33.25;33.72
21129;BME280;10722;51.910;8.352;2022-07-23T13:33:29;101017.31;;;33.09;34.16
21129;BME280;10722;51.910;8.352;2022-07-23T13:36:14;101002.97;;;32.33;35.18
21129;BME280;10722;51.910;8.352;2022-07-23T13:39:00;101009.94;;;29.68;38.88
21129;BME280;10722;51.910;8.352;2022-07-23T13:41:46;101071.47;;;28.50;44.04
21129;BME280;10722;51.910;8.352;2022-07-23T13:44:43;101040.31;;;29.01;40.84
21129;BME280;10722;51.910;8.352;2022-07-23T13:47:56;101043.53;;;29.08;41.16
21129;BME280;10722;51.910;8.352;2022-07-23T13:50:43;101065.16;;;28.33;44.08
21129;BME280;10722;51.910;8.352;2022-07-23T13:53:29;101065.50;;;28.45;42.69
21129;BME280;10722;51.910;8.352;2022-07-23T13:56:14;101053.00;;;27.93;42.80
21129;BME280;10722;51.910;8.352;2022-07-23T13:58:59;101059.53;;;27.31;44.01
21129;BME280;10722;51.910;8.352;2022-07-23T14:05:16;101090.47;;;26.10;48.46
21129;BME280;10722;51.910;8.352;2022-07-23T14:08:03;101090.06;;;26.40;47.59
21129;BME280;10722;51.910;8.352;2022-07-23T14:10:48;101085.31;;;26.48;46.84
21129;BME280;10722;51.910;8.352;2022-07-23T14:13:34;101102.59;;;26.58;47.88
21129;BME280;10722;51.910;8.352;2022-07-23T14:16:19;101088.44;;;26.58;46.67
21129;BME280;10722;51.910;8.352;2022-07-23T14:19:14;101066.16;;;25.77;47.26
21129;BME280;10722;51.910;8.352;2022-07-23T14:21:59;101091.72;;;25.09;49.20
21129;BME280;10722;51.910;8.352;2022-07-23T14:24:44;101095.75;;;25.43;48.51
21129;BME280;10722;51.910;8.352;2022-07-23T14:27:29;101121.03;;;25.52;49.91
21129;BME280;10722;51.910;8.352;2022-07-23T14:30:15;101127.47;;;25.68;50.72
21129;BME280;10722;51.910;8.352;2022-07-23T14:33:00;101142.81;;;25.82;51.39
21129;BME280;10722;51.910;8.352;2022-07-23T14:35:45;101125.13;;;25.82;50.54
21129;BME280;10722;51.910;8.352;2022-07-23T14:38:31;101134.13;;;25.78;51.61
21129;BME280;10722;51.910;8.352;2022-07-23T14:41:16;101112.22;;;25.73;50.30
21129;BME280;10722;51.910;8.352;2022-07-23T14:44:02;101098.75;;;25.79;49.02
21129;BME280;10722;51.910;8.352;2022-07-23T14:46:49;101136.56;;;25.84;51.38
21129;BME280;10722;51.910;8.352;2022-07-23T14:49:35;101105.94;;;25.99;48.35
21129;BME280;10722;51.910;8.352;2022-07-23T14:52:20;101099.03;;;25.95;47.76